Terminal Aerodrome Forecast
Issued by NWS

Home | Current Version | Previous Version | Text Only | Print | Product List | Glossary On
Versions: 1 2 3 4 5 6 7 8 9 10 11 12 13 14 15 16 17 18 19 20 21 22 23 24 25 26 27 28 29 30 31 32 33 34 35 36
007
FTUS46 KOTX 131730
TAFCOE
TAF
KCOE 131730Z 1318/1418 VRB03KT P6SM FEW010 OVC015
     FM132000 01003KT P6SM OVC012
     FM140100 02003KT P6SM SCT012
     FM140800 05006KT 4SM BR OVC005=

USA.gov is the U.S. government's official web portal to all federal, state and local government web resources and services.